createdAt,value
2022-11-02T00:00:04.522Z,10.5
2022-11-02T00:10:04.402Z,10.5
2022-11-02T00:20:04.509Z,11
2022-11-02T00:30:04.594Z,11
2022-11-02T00:40:04.486Z,11
2022-11-02T00:50:04.818Z,11
2022-11-02T01:00:04.473Z,11
2022-11-02T01:10:04.552Z,11
2022-11-02T01:20:04.664Z,11
2022-11-02T01:30:04.575Z,11
2022-11-02T01:40:04.713Z,11
2022-11-02T01:50:04.580Z,11
2022-11-02T02:00:04.671Z,11
2022-11-02T02:10:04.538Z,11
2022-11-02T02:20:04.705Z,11
2022-11-02T02:30:04.570Z,11
2022-11-02T02:40:04.662Z,11
2022-11-02T02:50:04.728Z,11
2022-11-02T03:00:04.694Z,11
2022-11-02T03:10:04.755Z,11
2022-11-02T03:20:04.657Z,11
2022-11-02T03:30:04.724Z,10.5
2022-11-02T03:40:04.645Z,10.5
2022-11-02T03:50:04.716Z,10.5
2022-11-02T04:00:04.840Z,10.5
2022-11-02T04:10:04.759Z,10.5
2022-11-02T04:20:04.674Z,10.5
2022-11-02T04:30:04.748Z,10.5
2022-11-02T04:40:04.874Z,10.5
2022-11-02T04:50:04.807Z,10.5
2022-11-02T05:00:04.897Z,10.5
2022-11-02T05:10:04.741Z,10.5
2022-11-02T05:20:04.870Z,10.5
2022-11-02T05:30:04.737Z,10.5
2022-11-02T05:40:04.869Z,10.5
2022-11-02T05:50:04.740Z,10.5
2022-11-02T06:00:04.861Z,10.5
2022-11-02T06:10:04.933Z,10.5
2022-11-02T06:20:04.881Z,10.5
2022-11-02T06:30:04.956Z,10.5
2022-11-02T06:40:04.860Z,10.5
2022-11-02T06:50:04.921Z,9.5
2022-11-02T07:00:04.936Z,9.5
2022-11-02T07:10:04.919Z,10
2022-11-02T07:20:05.039Z,10
2022-11-02T07:30:04.912Z,10
2022-11-02T07:40:05.034Z,10
2022-11-02T07:50:04.935Z,11
2022-11-02T08:00:05.110Z,11
2022-11-02T08:10:04.905Z,11
2022-11-02T08:20:05.032Z,11
2022-11-02T08:30:04.905Z,11.5
2022-11-02T08:40:05.019Z,12
2022-11-02T08:50:05.133Z,12
2022-11-02T09:00:05.013Z,12
2022-11-02T09:10:05.097Z,12
2022-11-02T09:20:05.012Z,12
2022-11-02T09:30:05.118Z,12.5
2022-11-02T09:40:05.034Z,12.5
2022-11-02T09:50:05.086Z,12.5
2022-11-02T10:00:05.218Z,12.5
2022-11-02T10:10:05.080Z,12.5
2022-11-02T10:20:05.205Z,12.5
2022-11-02T10:30:05.076Z,12.5
2022-11-02T10:40:05.216Z,12.5
2022-11-02T10:50:09.574Z,13
2022-11-02T11:00:05.402Z,12.5
2022-11-02T11:10:05.242Z,13
2022-11-02T11:20:07.129Z,13
2022-11-02T11:30:05.181Z,13
2022-11-02T11:40:05.315Z,13
2022-11-02T11:50:08.911Z,14
2022-11-02T12:00:05.403Z,14
2022-11-02T12:10:05.243Z,14
2022-11-02T12:20:05.307Z,14
2022-11-02T12:30:05.187Z,14
2022-11-02T12:40:05.368Z,14
2022-11-02T13:00:05.370Z,14
2022-11-02T13:10:05.259Z,14
2022-11-02T13:20:05.403Z,14
2022-11-02T13:30:05.438Z,14
2022-11-02T13:40:05.433Z,14
2022-11-02T13:50:05.412Z,14.5
2022-11-02T14:00:05.301Z,14.5
2022-11-02T14:10:05.406Z,14.5
2022-11-02T14:20:05.312Z,15
2022-11-02T14:30:05.392Z,15
2022-11-02T14:40:05.293Z,14.5
2022-11-02T14:50:05.398Z,14.5
2022-11-02T15:00:05.331Z,13.5
2022-11-02T15:10:05.386Z,13.5
2022-11-02T15:20:05.691Z,13.5
2022-11-02T15:30:05.375Z,13.5
2022-11-02T15:40:05.508Z,13.5
2022-11-02T15:50:05.462Z,13.5
2022-11-02T16:00:05.619Z,12.5
2022-11-02T16:10:05.498Z,12.5
2022-11-02T16:20:05.513Z,12.5
2022-11-02T16:30:05.358Z,12.5
2022-11-02T16:40:05.487Z,12.5
2022-11-02T16:50:05.575Z,12.5
2022-11-02T17:00:05.496Z,12.5
2022-11-02T17:10:05.559Z,12.5
2022-11-02T17:20:05.957Z,12.5
2022-11-02T17:30:05.586Z,13
2022-11-02T17:40:05.609Z,13
2022-11-02T17:50:05.507Z,13
2022-11-02T18:00:05.633Z,13
2022-11-02T18:10:05.525Z,13
2022-11-02T18:20:05.645Z,13
2022-11-02T18:30:05.520Z,13
2022-11-02T18:40:05.647Z,13
2022-11-02T18:50:05.517Z,13
2022-11-02T19:00:05.737Z,13
2022-11-02T19:10:05.659Z,13
2022-11-02T19:20:05.691Z,13
2022-11-02T19:30:05.576Z,13
2022-11-02T19:40:05.699Z,13
2022-11-02T19:50:05.565Z,13
2022-11-02T20:00:05.786Z,13
2022-11-02T20:10:05.761Z,13
2022-11-02T20:20:05.712Z,12.5
2022-11-02T20:30:05.799Z,12.5
2022-11-02T20:40:05.752Z,12.5
2022-11-02T20:50:05.756Z,13
2022-11-02T21:10:05.757Z,13
2022-11-02T21:20:33.478Z,13
2022-11-02T21:30:05.805Z,13
2022-11-02T21:40:05.844Z,12.5
2022-11-02T21:50:05.748Z,12.5
2022-11-02T22:00:05.823Z,12.5
2022-11-02T22:10:05.740Z,12.5
2022-11-02T22:20:05.818Z,12.5
2022-11-02T22:30:05.938Z,12.5
2022-11-02T22:40:05.813Z,12.5
2022-11-02T22:50:05.958Z,12.5
2022-11-02T23:00:05.816Z,12.5
2022-11-02T23:10:05.933Z,12.5
2022-11-02T23:20:05.804Z,12.5
2022-11-02T23:30:05.924Z,13
2022-11-02T23:40:05.793Z,12.5
2022-11-02T23:50:05.924Z,12.5
